Time;durP1;ratioP1;P1;durP2;ratioP2;P2;SDS_P1;SDS_P2;PMS_P1;PMS_P2;Temp;Humidity;BMP_temperature;BMP_pressure;BME280_temperature;BME280_humidity;BME280_pressure;Samples;Min_cycle;Max_cycle;Signal;HPM_P1;HPM_P2
2023/08/07 00:02:18;;;;;;;3.80;3.03;;;14.10;99.90;;;;;;5037333;28;20202;-76
2023/08/07 00:04:45;;;;;;;2.85;2.55;;;14.10;99.90;;;;;;5037350;28;20557;-76
2023/08/07 00:07:13;;;;;;;4.68;2.33;;;14.10;99.90;;;;;;5055085;28;20214;-76
2023/08/07 00:09:40;;;;;;;3.17;2.00;;;14.10;99.90;;;;;;5037156;28;20679;-76
2023/08/07 00:12:07;;;;;;;2.90;1.70;;;14.10;99.90;;;;;;5037902;28;20202;-76
2023/08/07 00:14:36;;;;;;;2.13;1.90;;;14.10;99.90;;;;;;5055091;28;20179;-76
2023/08/07 00:17:05;;;;;;;2.85;1.80;;;14.10;99.90;;;;;;5036318;28;20221;-76
2023/08/07 00:19:33;;;;;;;1.63;1.52;;;14.10;99.90;;;;;;5054731;28;20199;-76
2023/08/07 00:22:00;;;;;;;2.97;1.45;;;14.10;99.90;;;;;;5037035;28;20645;-76
2023/08/07 00:24:27;;;;;;;1.98;1.30;;;14.10;99.90;;;;;;5036283;28;20206;-76
2023/08/07 00:26:55;;;;;;;1.85;1.70;;;14.10;99.90;;;;;;5036690;28;20214;-76
2023/08/07 00:29:22;;;;;;;1.60;1.38;;;14.10;99.90;;;;;;5034196;28;20217;-76
2023/08/07 00:31:51;;;;;;;2.15;1.48;;;14.10;99.90;;;;;;5036931;28;20198;-76
2023/08/07 00:34:19;;;;;;;1.98;1.30;;;14.10;99.90;;;;;;5037263;28;20656;-75
2023/08/07 00:36:46;;;;;;;1.55;1.45;;;14.10;99.90;;;;;;5036234;28;20218;-76
2023/08/07 00:39:14;;;;;;;3.10;1.92;;;14.10;99.90;;;;;;5036617;28;20565;-76
2023/08/07 00:41:41;;;;;;;3.30;1.92;;;14.10;99.90;;;;;;5036883;28;20198;-76
2023/08/07 00:44:10;;;;;;;2.50;1.60;;;14.20;99.90;;;;;;5036320;28;20194;-75
2023/08/07 00:46:38;;;;;;;3.35;1.80;;;14.10;99.90;;;;;;5035856;28;20226;-76
2023/08/07 00:49:08;;;;;;;2.05;1.70;;;14.20;99.90;;;;;;5036042;28;20205;-76
2023/08/07 00:51:36;;;;;;;3.30;2.00;;;14.10;99.90;;;;;;5037032;28;20198;-76
2023/08/07 00:54:05;;;;;;;3.92;2.92;;;14.10;99.90;;;;;;5036637;28;20660;-76
2023/08/07 00:56:33;;;;;;;4.85;2.10;;;14.10;99.90;;;;;;5035932;28;20680;-76
2023/08/07 00:59:01;;;;;;;4.22;2.58;;;14.10;99.90;;;;;;5036242;28;20210;-78
2023/08/07 01:01:29;;;;;;;4.07;2.53;;;14.10;99.90;;;;;;5036320;28;20198;-78
2023/08/07 01:03:56;;;;;;;5.10;2.55;;;14.10;99.90;;;;;;5036155;28;20199;-78
2023/08/07 01:06:41;;;;;;;3.80;2.40;;;14.10;99.90;;;;;;5035981;28;20202;-78
2023/08/07 01:09:08;;;;;;;3.58;2.60;;;14.20;99.90;;;;;;5029169;28;20206;-78
2023/08/07 01:11:44;;;;;;;3.10;2.55;;;14.20;99.90;;;;;;5030464;28;20567;-79
2023/08/07 01:14:20;;;;;;;4.78;2.47;;;14.10;99.90;;;;;;5036052;28;20198;-78
2023/08/07 01:16:52;;;;;;;4.07;2.70;;;14.10;99.90;;;;;;5035574;28;20214;-78
2023/08/07 01:19:25;;;;;;;3.83;2.53;;;14.00;99.90;;;;;;5035732;28;20683;-78
2023/08/07 01:22:06;;;;;;;3.17;2.30;;;14.10;99.90;;;;;;5027823;28;20194;-78
2023/08/07 01:24:34;;;;;;;4.70;2.50;;;14.00;99.90;;;;;;5054076;28;20179;-78
2023/08/07 01:27:11;;;;;;;4.53;2.78;;;14.10;99.90;;;;;;5052921;28;20210;-78
2023/08/07 01:29:45;;;;;;;5.63;2.90;;;14.00;99.90;;;;;;5015714;28;20195;-78
2023/08/07 01:32:16;;;;;;;3.38;2.25;;;13.90;99.90;;;;;;5025508;28;20668;-78
2023/08/07 01:34:45;;;;;;;3.50;2.38;;;14.00;99.90;;;;;;5034936;28;20202;-78
2023/08/07 01:37:14;;;;;;;3.75;2.42;;;13.90;99.90;;;;;;5035891;28;20230;-78
2023/08/07 01:39:53;;;;;;;3.85;2.33;;;14.00;99.90;;;;;;5035523;28;20221;-78
2023/08/07 01:42:21;;;;;;;4.63;2.40;;;14.00;99.90;;;;;;5035280;28;20194;-78
2023/08/07 01:44:49;;;;;;;3.28;2.22;;;14.00;99.90;;;;;;5035655;28;20641;-78
2023/08/07 01:47:16;;;;;;;4.47;2.83;;;13.90;99.90;;;;;;5035703;28;20684;-78
2023/08/07 01:49:44;;;;;;;3.22;2.55;;;13.90;99.90;;;;;;5035298;28;20201;-78
2023/08/07 01:52:12;;;;;;;4.68;2.70;;;13.90;99.90;;;;;;5035368;28;20209;-78
2023/08/07 01:54:41;;;;;;;3.55;1.92;;;13.90;99.90;;;;;;5030050;28;20199;-78
2023/08/07 01:57:08;;;;;;;3.83;2.05;;;13.90;99.90;;;;;;5031898;28;20217;-78
2023/08/07 01:59:35;;;;;;;5.75;2.47;;;13.90;99.90;;;;;;5034207;28;20210;-78
2023/08/07 02:02:03;;;;;;;4.30;2.90;;;13.90;99.90;;;;;;5034854;28;20199;-78
2023/08/07 02:04:30;;;;;;;4.63;2.83;;;13.90;99.90;;;;;;5035300;28;20208;-78
2023/08/07 02:06:58;;;;;;;3.80;3.30;;;13.90;99.90;;;;;;5034997;28;20222;-78
2023/08/07 02:09:25;;;;;;;3.72;3.13;;;13.90;99.90;;;;;;5034846;28;20206;-79
2023/08/07 02:11:54;;;;;;;4.38;3.10;;;13.80;99.90;;;;;;5035160;28;20671;-78
2023/08/07 02:14:21;;;;;;;5.68;3.72;;;13.80;99.90;;;;;;5032928;28;20207;-78
2023/08/07 02:16:49;;;;;;;6.50;3.65;;;13.80;99.90;;;;;;5034898;28;20233;-78
2023/08/07 02:19:16;;;;;;;4.18;3.45;;;13.80;99.90;;;;;;5034636;28;20214;-78
2023/08/07 02:21:43;;;;;;;4.05;3.30;;;13.90;99.90;;;;;;5034753;28;20202;-78
2023/08/07 02:24:11;;;;;;;4.22;2.95;;;13.80;99.90;;;;;;5052762;28;20183;-78
2023/08/07 02:26:40;;;;;;;3.17;2.53;;;13.90;99.90;;;;;;5023831;28;20218;-78
2023/08/07 02:29:09;;;;;;;3.47;2.10;;;13.90;99.90;;;;;;5034151;28;20198;-79
2023/08/07 02:31:36;;;;;;;3.60;2.30;;;13.90;99.90;;;;;;5034771;28;20198;-78
2023/08/07 02:34:03;;;;;;;4.28;2.15;;;13.90;99.90;;;;;;5034608;28;20202;-78
2023/08/07 02:36:32;;;;;;;5.28;2.38;;;13.90;99.90;;;;;;5034622;28;20233;-78
2023/08/07 02:39:00;;;;;;;2.15;1.63;;;13.80;99.90;;;;;;5033973;28;20197;-78
2023/08/07 02:41:27;;;;;;;3.45;2.10;;;13.90;99.90;;;;;;5028113;28;20205;-78
2023/08/07 02:43:55;;;;;;;2.47;1.85;;;13.90;99.90;;;;;;5031675;28;20352;-78
2023/08/07 02:46:24;;;;;;;2.60;1.80;;;13.90;99.90;;;;;;5033944;28;20209;-78
2023/08/07 02:48:52;;;;;;;3.17;1.90;;;13.90;99.90;;;;;;5034268;28;20205;-78
2023/08/07 02:51:20;;;;;;;3.15;1.73;;;13.90;99.90;;;;;;5028420;28;20209;-78
2023/08/07 02:53:47;;;;;;;3.78;1.90;;;13.90;99.90;;;;;;5034065;28;20194;-78
2023/08/07 02:56:14;;;;;;;2.05;1.40;;;13.90;99.90;;;;;;5034098;28;20203;-78
2023/08/07 02:58:42;;;;;;;2.20;1.42;;;13.90;99.90;;;;;;5034025;28;20193;-78
2023/08/07 03:01:11;;;;;;;3.03;1.65;;;13.90;99.90;;;;;;5034256;28;20207;-78
2023/08/07 03:03:40;;;;;;;3.63;1.40;;;14.00;99.90;;;;;;5034657;28;20194;-78
2023/08/07 03:06:07;;;;;;;3.22;1.20;;;14.00;99.90;;;;;;5034098;28;20202;-78
2023/08/07 03:08:35;;;;;;;2.75;1.40;;;13.90;99.90;;;;;;5034229;28;20575;-78
2023/08/07 03:11:02;;;;;;;1.98;1.42;;;13.90;99.90;;;;;;5034628;28;20194;-78
2023/08/07 03:13:29;;;;;;;2.90;1.23;;;13.90;99.90;;;;;;5036638;28;20205;-78
2023/08/07 03:16:00;;;;;;;3.75;1.15;;;13.90;99.90;;;;;;5035876;28;20209;-78
2023/08/07 03:18:28;;;;;;;1.90;1.25;;;13.90;99.90;;;;;;5037864;28;20233;-78
2023/08/07 03:20:57;;;;;;;3.28;1.17;;;13.90;99.90;;;;;;5038453;28;20202;-78
2023/08/07 03:23:25;;;;;;;1.42;1.30;;;13.90;99.90;;;;;;5038139;28;20541;-78
2023/08/07 03:26:03;;;;;;;2.50;1.33;;;13.80;99.90;;;;;;5037258;28;20556;-78
2023/08/07 03:28:37;;;;;;;1.63;1.50;;;13.90;99.90;;;;;;5038010;28;20218;-78
2023/08/07 03:31:05;;;;;;;3.00;1.30;;;13.80;99.90;;;;;;5027343;28;20644;-78
2023/08/07 03:33:35;;;;;;;2.25;1.58;;;13.80;99.90;;;;;;5038283;28;20570;-78
2023/08/07 03:36:05;;;;;;;1.85;1.55;;;13.80;99.90;;;;;;5038311;28;20191;-78
2023/08/07 03:38:33;;;;;;;2.28;1.77;;;13.80;99.90;;;;;;5038006;28;20222;-78
2023/08/07 03:41:01;;;;;;;2.63;1.83;;;13.80;99.90;;;;;;5037798;28;20202;-79
2023/08/07 03:43:30;;;;;;;2.25;1.90;;;13.80;99.90;;;;;;5037794;28;20206;-76
2023/08/07 03:45:57;;;;;;;3.67;2.22;;;13.80;99.90;;;;;;5037579;28;20202;-75
2023/08/07 03:48:25;;;;;;;5.20;2.58;;;13.80;99.90;;;;;;5037514;28;20222;-76
2023/08/07 03:50:52;;;;;;;6.78;2.50;;;13.80;99.90;;;;;;5037518;28;20190;-75
2023/08/07 03:53:21;;;;;;;5.00;2.95;;;13.80;99.90;;;;;;5037318;28;20562;-76
2023/08/07 03:55:53;;;;;;;8.40;3.13;;;13.80;99.90;;;;;;5037020;28;20191;-76
2023/08/07 03:58:23;;;;;;;5.38;2.72;;;13.80;99.90;;;;;;5037552;28;20222;-76
2023/08/07 04:00:52;;;;;;;5.00;3.33;;;13.80;99.90;;;;;;5036366;28;20229;-76
2023/08/07 04:03:20;;;;;;;6.47;3.88;;;13.70;99.90;;;;;;5036980;28;20198;-76
2023/08/07 04:05:48;;;;;;;7.72;3.33;;;13.80;99.90;;;;;;5032487;28;20202;-76
2023/08/07 04:08:16;;;;;;;6.78;4.38;;;13.80;99.90;;;;;;5035976;28;20222;-76
2023/08/07 04:10:44;;;;;;;5.50;3.30;;;13.80;99.90;;;;;;5036699;28;20191;-75
2023/08/07 04:13:12;;;;;;;8.10;4.20;;;13.70;99.90;;;;;;5054864;28;20187;-76
2023/08/07 04:15:39;;;;;;;5.43;3.45;;;13.80;99.90;;;;;;5040397;28;20201;-76
2023/08/07 04:18:07;;;;;;;7.50;3.92;;;13.80;99.90;;;;;;5036412;28;20222;-76
2023/08/07 04:20:35;;;;;;;6.90;3.55;;;13.70;99.90;;;;;;5035774;28;20695;-76
2023/08/07 04:23:02;;;;;;;7.40;3.88;;;13.70;99.90;;;;;;5035935;28;20195;-76
2023/08/07 04:25:30;;;;;;;5.78;4.13;;;13.70;99.90;;;;;;5054264;28;20191;-76
2023/08/07 04:27:59;;;;;;;7.50;4.05;;;13.80;99.90;;;;;;5040095;28;20214;-76
2023/08/07 04:30:26;;;;;;;9.13;4.60;;;13.70;99.90;;;;;;5052892;28;20194;-76
2023/08/07 04:32:55;;;;;;;8.95;5.43;;;13.80;99.90;;;;;;5036354;28;20661;-76
2023/08/07 04:35:23;;;;;;;9.75;4.97;;;13.90;99.90;;;;;;5036637;28;20221;-77
2023/08/07 04:37:51;;;;;;;9.40;5.38;;;13.80;99.90;;;;;;5033153;28;20229;-76
2023/08/07 04:40:18;;;;;;;12.80;5.88;;;13.80;99.90;;;;;;5033641;28;20225;-76
2023/08/07 04:42:46;;;;;;;10.35;5.35;;;13.70;99.90;;;;;;5033729;28;20206;-76
2023/08/07 04:45:15;;;;;;;11.15;4.68;;;13.70;99.90;;;;;;5034507;28;20198;-76
2023/08/07 04:47:42;;;;;;;12.55;6.25;;;13.70;99.90;;;;;;5035279;28;20218;-76
2023/08/07 04:50:10;;;;;;;11.07;5.55;;;13.60;99.90;;;;;;5034306;28;21921;-77
2023/08/07 04:52:37;;;;;;;8.48;5.53;;;13.70;99.90;;;;;;5033460;28;20194;-77
2023/08/07 04:55:28;;;;;;;9.77;5.20;;;13.60;99.90;;;;;;5025503;28;20222;-76
2023/08/07 04:57:56;;;;;;;7.40;5.00;;;13.60;99.90;;;;;;5033783;28;20226;-77
2023/08/07 05:00:25;;;;;;;10.30;5.90;;;13.80;99.90;;;;;;5051404;28;20218;-77
2023/08/07 05:03:08;;;;;;;9.13;5.32;;;13.80;99.90;;;;;;5035421;28;20206;-77
2023/08/07 05:05:41;;;;;;;8.63;5.05;;;13.80;99.90;;;;;;5028868;28;20202;-77
2023/08/07 05:08:08;;;;;;;10.40;5.72;;;13.60;99.90;;;;;;5032987;28;20233;-77
2023/08/07 05:10:36;;;;;;;9.70;5.85;;;13.70;99.90;;;;;;5035598;28;20198;-77
2023/08/07 05:13:03;;;;;;;6.85;5.32;;;13.60;99.90;;;;;;5032628;28;20217;-77
2023/08/07 05:15:32;;;;;;;8.38;5.20;;;13.60;99.90;;;;;;5036402;28;20229;-77
2023/08/07 05:17:59;;;;;;;9.63;5.00;;;13.70;99.90;;;;;;5029439;28;20222;-77
2023/08/07 05:20:27;;;;;;;9.40;4.45;;;13.60;99.90;;;;;;5026467;28;20226;-77
2023/08/07 05:22:55;;;;;;;8.82;4.90;;;13.60;99.90;;;;;;5047745;28;20278;-77
2023/08/07 05:25:23;;;;;;;9.13;4.65;;;13.60;99.90;;;;;;5032883;28;20199;-77
2023/08/07 05:27:50;;;;;;;10.45;4.45;;;13.70;99.90;;;;;;5030206;28;20312;-77
2023/08/07 05:30:18;;;;;;;8.52;4.13;;;13.70;99.90;;;;;;5032448;28;20209;-76
2023/08/07 05:32:46;;;;;;;5.85;4.05;;;13.60;99.90;;;;;;5024444;28;20677;-76
2023/08/07 05:35:14;;;;;;;7.68;4.28;;;13.70;99.90;;;;;;5027071;28;20213;-77
2023/08/07 05:37:47;;;;;;;6.05;3.95;;;13.60;99.90;;;;;;5035312;28;20222;-77
2023/08/07 05:40:15;;;;;;;6.55;3.47;;;13.60;99.90;;;;;;5052988;28;20214;-77
2023/08/07 05:42:42;;;;;;;6.65;3.65;;;13.60;99.90;;;;;;5030192;28;20213;-77
2023/08/07 05:45:11;;;;;;;11.15;4.13;;;13.60;99.90;;;;;;5029352;28;20210;-77
2023/08/07 05:47:38;;;;;;;7.88;4.40;;;13.60;99.90;;;;;;5027657;28;20229;-77
2023/08/07 05:50:10;;;;;;;8.80;3.95;;;13.60;99.90;;;;;;5037590;28;20209;-77
2023/08/07 05:52:38;;;;;;;8.27;4.22;;;13.60;99.90;;;;;;5033685;28;20202;-77
2023/08/07 05:55:06;;;;;;;9.32;4.60;;;13.60;99.90;;;;;;5032571;28;20202;-77
2023/08/07 05:57:34;;;;;;;12.43;4.28;;;13.60;99.90;;;;;;5034475;28;20240;-77
2023/08/07 06:00:02;;;;;;;10.75;4.47;;;13.60;99.90;;;;;;5027743;28;20201;-77
2023/08/07 06:02:49;;;;;;;10.50;5.22;;;13.60;99.90;;;;;;5049641;28;20221;-77
2023/08/07 06:05:18;;;;;;;9.18;4.72;;;13.70;99.90;;;;;;5033278;28;20225;-77
2023/08/07 06:07:45;;;;;;;11.50;4.95;;;13.70;99.90;;;;;;5031495;28;20588;-77
2023/08/07 06:10:13;;;;;;;7.35;4.38;;;13.60;99.90;;;;;;5047159;28;20199;-76
2023/08/07 06:12:40;;;;;;;12.32;5.90;;;13.60;99.90;;;;;;5047378;28;20201;-77
2023/08/07 06:15:08;;;;;;;5.68;4.75;;;13.60;99.90;;;;;;5023874;28;20685;-76
2023/08/07 06:17:36;;;;;;;7.53;5.15;;;13.60;99.90;;;;;;5030883;28;20580;-76
2023/08/07 06:20:23;;;;;;;8.55;4.40;;;13.60;99.90;;;;;;5054124;28;20568;-76
2023/08/07 06:22:54;;;;;;;6.90;4.28;;;13.60;99.90;;;;;;5029765;28;20253;-77
2023/08/07 06:25:28;;;;;;;5.60;4.32;;;13.60;99.90;;;;;;5031296;28;20203;-77
2023/08/07 06:27:55;;;;;;;8.85;4.65;;;13.70;99.90;;;;;;5033042;28;20305;-77
2023/08/07 06:30:23;;;;;;;8.27;4.32;;;13.70;99.90;;;;;;5032910;28;20201;-76
2023/08/07 06:32:50;;;;;;;5.75;4.65;;;13.70;99.90;;;;;;5031838;28;20574;-77
2023/08/07 06:35:18;;;;;;;6.25;4.25;;;13.70;99.90;;;;;;5028998;28;20233;-76
2023/08/07 06:37:46;;;;;;;5.38;4.30;;;13.80;99.90;;;;;;5028943;28;20218;-76
2023/08/07 06:40:14;;;;;;;5.95;4.32;;;13.80;99.90;;;;;;5033949;28;20221;-76
2023/08/07 06:42:44;;;;;;;8.15;4.43;;;13.80;99.90;;;;;;5029133;28;20222;-77
2023/08/07 06:45:37;;;;;;;8.70;4.63;;;13.80;99.90;;;;;;5032292;28;20190;-77
2023/08/07 06:48:05;;;;;;;6.00;4.25;;;13.80;99.90;;;;;;5031886;28;20221;-77
2023/08/07 06:50:32;;;;;;;7.35;3.67;;;13.90;99.90;;;;;;5029029;28;20206;-77
2023/08/07 06:53:31;;;;;;;6.70;4.57;;;13.90;99.90;;;;;;5030883;28;20207;-77
2023/08/07 06:56:00;;;;;;;6.95;3.80;;;13.90;99.90;;;;;;5031277;28;20201;-77
2023/08/07 06:58:46;;;;;;;5.82;3.95;;;13.90;99.90;;;;;;5031384;28;20222;-77
2023/08/07 07:01:14;;;;;;;7.53;4.45;;;14.00;99.90;;;;;;5031126;28;20233;-77
2023/08/07 07:03:41;;;;;;;5.55;4.20;;;14.00;99.90;;;;;;5030309;28;20206;-76
2023/08/07 07:06:09;;;;;;;9.38;4.68;;;14.00;99.90;;;;;;5028752;28;20202;-76
2023/08/07 07:08:37;;;;;;;6.82;4.50;;;14.00;99.90;;;;;;5041994;28;20215;-76
2023/08/07 07:11:05;;;;;;;7.00;4.45;;;14.00;99.90;;;;;;5042211;28;20195;-76
2023/08/07 07:13:32;;;;;;;7.05;4.50;;;14.00;99.90;;;;;;5045671;28;20197;-76
2023/08/07 07:16:00;;;;;;;8.07;4.45;;;14.10;99.90;;;;;;5032960;28;20190;-78
2023/08/07 07:18:27;;;;;;;5.88;3.80;;;14.70;99.90;;;;;;5043963;28;20217;-78
2023/08/07 07:21:12;;;;;;;7.30;4.10;;;15.00;99.90;;;;;;5026742;28;20556;-78
2023/08/07 07:23:44;;;;;;;5.55;3.53;;;15.00;99.90;;;;;;5027250;28;20218;-78
2023/08/07 07:26:25;;;;;;;5.05;3.15;;;15.10;99.90;;;;;;5030613;28;20198;-77
2023/08/07 07:28:53;;;;;;;5.10;3.40;;;15.10;99.90;;;;;;5026973;28;20286;-76
2023/08/07 07:31:25;;;;;;;5.03;2.97;;;14.60;99.90;;;;;;5025716;28;20557;-75
2023/08/07 07:34:07;;;;;;;4.70;3.33;;;14.40;99.90;;;;;;5042332;28;20194;-76
2023/08/07 07:36:36;;;;;;;4.20;3.55;;;14.20;99.90;;;;;;5022305;28;20552;-76
2023/08/07 07:39:13;;;;;;;3.53;3.20;;;14.10;99.90;;;;;;5040278;28;20660;-76
2023/08/07 07:41:42;;;;;;;4.90;3.45;;;14.10;99.90;;;;;;5023649;28;20493;-77
2023/08/07 07:44:25;;;;;;;5.18;3.85;;;14.10;99.90;;;;;;5029266;28;20194;-76
2023/08/07 07:46:58;;;;;;;4.82;3.53;;;14.20;99.90;;;;;;5029444;28;20665;-76
2023/08/07 07:49:26;;;;;;;7.25;3.95;;;14.10;99.90;;;;;;5026743;28;20205;-75
2023/08/07 07:51:53;;;;;;;3.67;3.17;;;14.10;99.90;;;;;;5031167;28;20194;-78
2023/08/07 07:54:22;;;;;;;5.03;3.25;;;14.20;99.90;;;;;;5031468;28;20202;-78
2023/08/07 07:56:49;;;;;;;4.82;3.42;;;14.10;99.90;;;;;;5030279;28;20218;-80
2023/08/07 07:59:18;;;;;;;3.15;2.85;;;14.10;99.90;;;;;;5047688;28;20198;-78
2023/08/07 08:01:45;;;;;;;4.13;2.78;;;14.10;99.90;;;;;;5035761;28;20206;-77
2023/08/07 08:04:15;;;;;;;5.72;3.08;;;14.10;99.90;;;;;;5036752;28;20198;-78
2023/08/07 08:06:42;;;;;;;6.03;3.40;;;14.10;99.90;;;;;;5034994;28;20222;-78
2023/08/07 08:09:13;;;;;;;6.75;3.00;;;14.20;99.90;;;;;;5033779;28;20198;-79
2023/08/07 08:11:43;;;;;;;4.30;2.90;;;14.20;99.90;;;;;;5027653;28;20202;-79
2023/08/07 08:14:14;;;;;;;5.90;3.17;;;14.20;99.90;;;;;;5033851;28;20217;-79
2023/08/07 08:16:41;;;;;;;3.55;2.85;;;14.30;99.90;;;;;;5034430;28;20218;-81
2023/08/07 08:19:09;;;;;;;3.28;2.67;;;14.30;99.90;;;;;;5040662;28;20206;-80
2023/08/07 08:21:37;;;;;;;4.68;2.38;;;14.30;99.90;;;;;;5035127;28;20218;-79
2023/08/07 08:24:05;;;;;;;4.13;1.98;;;14.30;99.90;;;;;;5036726;28;20556;-78
2023/08/07 08:26:33;;;;;;;2.55;1.73;;;14.30;99.90;;;;;;5041943;28;20516;-79
2023/08/07 08:29:01;;;;;;;3.50;2.30;;;14.30;99.90;;;;;;5036494;28;20209;-79
2023/08/07 08:31:29;;;;;;;2.42;1.77;;;14.40;99.90;;;;;;5051544;28;20340;-78
2023/08/07 08:33:57;;;;;;;2.20;1.50;;;14.40;99.90;;;;;;5035583;28;20205;-80
2023/08/07 08:36:25;;;;;;;5.03;1.67;;;14.50;99.90;;;;;;5032930;28;20565;-80
2023/08/07 08:38:52;;;;;;;4.93;2.45;;;14.50;99.90;;;;;;5033229;28;20215;-79
2023/08/07 08:41:21;;;;;;;3.63;2.45;;;14.50;99.90;;;;;;5037417;28;20209;-79
2023/08/07 08:43:57;;;;;;;3.63;2.58;;;14.50;99.90;;;;;;5037017;28;20221;-79
2023/08/07 08:46:30;;;;;;;6.07;2.50;;;14.50;99.90;;;;;;5033358;28;20198;-80
2023/08/07 08:48:59;;;;;;;3.22;1.85;;;14.50;99.90;;;;;;5038759;28;20195;-81
2023/08/07 08:51:27;;;;;;;5.80;2.40;;;14.50;99.90;;;;;;5032330;28;20213;-77
2023/08/07 08:54:04;;;;;;;4.90;2.45;;;14.50;99.90;;;;;;5031819;28;20194;-77
2023/08/07 08:56:32;;;;;;;7.97;3.10;;;14.50;99.90;;;;;;5030035;28;20210;-78
2023/08/07 08:59:00;;;;;;;4.25;3.10;;;14.50;99.90;;;;;;5050178;28;20194;-81
2023/08/07 09:01:30;;;;;;;4.90;3.63;;;14.60;99.90;;;;;;5036383;28;20207;-81
2023/08/07 09:03:58;;;;;;;6.43;3.60;;;14.60;99.90;;;;;;5036562;28;20203;-81
2023/08/07 09:06:29;;;;;;;5.03;2.83;;;14.70;99.90;;;;;;5030443;28;20199;-80
2023/08/07 09:08:58;;;;;;;7.60;4.00;;;14.80;99.90;;;;;;5050101;28;20561;-81
2023/08/07 09:11:26;;;;;;;5.57;3.83;;;14.90;99.90;;;;;;5034345;28;20217;-81
2023/08/07 09:13:55;;;;;;;7.95;3.70;;;14.90;99.90;;;;;;5034500;28;20198;-79
2023/08/07 09:16:25;;;;;;;8.15;3.92;;;14.90;99.90;;;;;;5032889;28;20550;-82
2023/08/07 09:18:55;;;;;;;7.82;3.92;;;15.00;99.90;;;;;;5039234;28;20219;-83
2023/08/07 09:21:22;;;;;;;6.40;3.78;;;15.10;99.90;;;;;;5039922;28;20198;-80
2023/08/07 09:24:02;;;;;;;7.88;3.78;;;15.10;99.90;;;;;;5055654;28;20206;-77
2023/08/07 09:26:32;;;;;;;6.07;3.88;;;15.20;99.90;;;;;;5035356;28;20205;-78
2023/08/07 09:29:00;;;;;;;8.68;4.15;;;15.20;99.90;;;;;;5034483;28;20191;-78
2023/08/07 09:31:28;;;;;;;9.30;3.75;;;15.30;99.90;;;;;;5034218;28;20213;-78
2023/08/07 09:34:02;;;;;;;9.02;4.15;;;15.40;99.90;;;;;;5041795;28;20664;-80
2023/08/07 09:36:31;;;;;;;7.70;3.50;;;15.40;99.90;;;;;;5052825;28;20194;-80
2023/08/07 09:39:02;;;;;;;9.10;3.75;;;15.40;99.90;;;;;;5038833;28;20220;-78
2023/08/07 09:41:30;;;;;;;7.57;2.92;;;15.40;99.90;;;;;;5031548;28;20194;-77
2023/08/07 09:43:58;;;;;;;7.05;3.15;;;15.30;99.90;;;;;;5032925;28;20229;-78
2023/08/07 09:46:27;;;;;;;9.13;3.78;;;15.40;99.90;;;;;;5039672;28;20624;-78
2023/08/07 09:49:00;;;;;;;6.97;3.67;;;15.60;99.90;;;;;;5037880;28;20202;-79
2023/08/07 09:51:27;;;;;;;7.47;3.08;;;16.00;99.90;;;;;;5057389;28;20648;-79
2023/08/07 09:53:54;;;;;;;9.05;3.28;;;16.10;99.90;;;;;;5040041;28;20214;-78
2023/08/07 09:56:23;;;;;;;8.80;3.65;;;16.20;99.90;;;;;;5036358;28;20210;-78
2023/08/07 09:58:50;;;;;;;5.95;3.40;;;16.10;99.90;;;;;;5033640;28;20205;-78
2023/08/07 10:01:18;;;;;;;6.88;3.30;;;15.90;99.90;;;;;;5047659;28;20202;-78
2023/08/07 10:03:46;;;;;;;9.30;3.63;;;15.90;99.90;;;;;;5030881;28;20229;-78
2023/08/07 10:06:15;;;;;;;6.47;2.90;;;15.70;99.90;;;;;;5050843;28;20194;-78
2023/08/07 10:08:45;;;;;;;7.95;2.85;;;15.60;99.90;;;;;;5031394;28;20203;-77
2023/08/07 10:11:14;;;;;;;7.97;3.70;;;15.30;99.90;;;;;;5035281;28;20203;-78
2023/08/07 10:13:42;;;;;;;5.40;2.50;;;15.20;99.90;;;;;;5051323;28;20189;-78
2023/08/07 10:16:09;;;;;;;2.85;2.10;;;15.10;99.90;;;;;;5033582;28;20577;-78
2023/08/07 10:18:37;;;;;;;6.25;2.70;;;15.10;99.90;;;;;;5032148;28;20218;-78
2023/08/07 10:21:07;;;;;;;4.45;2.80;;;15.10;99.90;;;;;;5050564;28;20194;-78
2023/08/07 10:23:36;;;;;;;6.43;2.75;;;15.10;99.90;;;;;;5050820;28;20212;-78
2023/08/07 10:26:06;;;;;;;3.47;2.35;;;15.40;99.90;;;;;;5033496;28;20206;-77
2023/08/07 10:28:38;;;;;;;5.18;2.45;;;15.30;99.90;;;;;;5030668;28;20222;-78
2023/08/07 10:31:06;;;;;;;6.35;3.08;;;15.50;99.90;;;;;;5031488;28;20198;-78
2023/08/07 10:33:34;;;;;;;5.43;3.08;;;15.70;99.90;;;;;;5033760;28;20195;-78
2023/08/07 10:36:08;;;;;;;9.00;3.42;;;15.90;99.90;;;;;;5054435;28;20197;-78
2023/08/07 10:38:37;;;;;;;6.72;3.00;;;15.90;99.90;;;;;;5055076;28;20240;-78
2023/08/07 10:41:09;;;;;;;6.95;3.58;;;16.00;99.90;;;;;;5052707;28;20192;-78
2023/08/07 10:43:41;;;;;;;5.75;3.50;;;16.10;99.90;;;;;;5034104;28;20210;-78
2023/08/07 10:46:12;;;;;;;6.18;3.42;;;16.20;99.90;;;;;;5051056;28;20190;-78
2023/08/07 10:48:48;;;;;;;5.65;2.90;;;16.30;99.90;;;;;;5052931;28;20218;-78
2023/08/07 10:51:16;;;;;;;8.13;2.80;;;16.40;99.90;;;;;;5041868;28;20581;-78
2023/08/07 10:53:46;;;;;;;7.60;3.03;;;16.50;99.90;;;;;;5034691;28;20190;-77
2023/08/07 10:56:17;;;;;;;6.70;2.97;;;16.50;99.90;;;;;;5034352;28;20551;-78
2023/08/07 10:58:51;;;;;;;7.70;4.05;;;16.70;99.90;;;;;;5032992;28;20648;-78
2023/08/07 11:01:28;;;;;;;7.25;3.13;;;16.50;99.90;;;;;;5050444;28;20212;-78
2023/08/07 11:03:57;;;;;;;10.43;3.10;;;16.60;99.90;;;;;;5033402;28;20593;-78
2023/08/07 11:06:26;;;;;;;7.35;2.85;;;16.60;99.90;;;;;;5053624;28;20206;-79
2023/08/07 11:08:55;;;;;;;9.45;3.13;;;16.60;99.90;;;;;;5034671;28;20198;-78
2023/08/07 11:11:23;;;;;;;6.22;3.33;;;16.70;99.90;;;;;;5030341;28;20567;-78
2023/08/07 11:13:50;;;;;;;5.90;2.53;;;16.80;99.90;;;;;;5036766;28;20202;-78
2023/08/07 11:16:20;;;;;;;4.68;2.17;;;16.80;99.90;;;;;;5032617;28;20203;-78
2023/08/07 11:18:50;;;;;;;7.90;2.90;;;16.80;99.90;;;;;;5031078;28;20660;-78
2023/08/07 11:21:19;;;;;;;7.25;2.85;;;16.80;99.90;;;;;;5033023;28;20207;-78
2023/08/07 11:23:49;;;;;;;4.70;2.33;;;17.00;99.90;;;;;;5032674;28;20225;-78
2023/08/07 11:26:24;;;;;;;9.05;3.33;;;17.10;99.90;;;;;;5034656;28;20296;-78
2023/08/07 11:28:52;;;;;;;7.75;2.45;;;17.20;99.90;;;;;;5028845;28;20209;-78
2023/08/07 11:31:20;;;;;;;8.40;2.63;;;17.30;99.90;;;;;;5034596;28;20209;-78
2023/08/07 11:33:48;;;;;;;8.18;3.20;;;17.40;99.90;;;;;;5035576;28;20198;-78
2023/08/07 11:36:15;;;;;;;5.70;2.58;;;17.30;99.90;;;;;;5038357;28;20582;-78
2023/08/07 11:38:44;;;;;;;5.55;2.55;;;17.20;99.90;;;;;;5036761;28;20203;-78
2023/08/07 11:41:12;;;;;;;9.15;2.55;;;17.20;99.90;;;;;;5036585;28;20195;-78
2023/08/07 11:43:42;;;;;;;4.65;2.58;;;16.90;99.90;;;;;;5034943;28;20214;-78
2023/08/07 11:46:11;;;;;;;7.70;2.75;;;16.90;99.90;;;;;;5038751;28;20199;-78
2023/08/07 11:48:40;;;;;;;5.90;3.25;;;16.80;99.90;;;;;;5038891;28;20233;-78
2023/08/07 11:51:08;;;;;;;6.38;2.72;;;16.80;99.90;;;;;;5035554;28;20202;-78
2023/08/07 11:53:38;;;;;;;5.80;2.80;;;17.00;99.90;;;;;;5038036;28;20191;-78
2023/08/07 11:56:09;;;;;;;6.28;2.25;;;17.30;54.10;;;;;;5039110;28;20194;-78
2023/08/07 11:58:38;;;;;;;6.95;2.78;;;17.40;14.40;;;;;;5035541;28;20265;-78
2023/08/07 12:01:07;;;;;;;7.05;2.67;;;17.60;1.00;;;;;;5037024;28;20573;-78
2023/08/07 12:03:38;;;;;;;5.93;2.38;;;17.60;99.90;;;;;;5039322;28;20550;-78
2023/08/07 12:06:07;;;;;;;6.38;2.72;;;17.60;99.90;;;;;;5032928;28;20206;-78
2023/08/07 12:08:36;;;;;;;4.13;2.25;;;17.80;1.00;;;;;;5055073;28;20214;-78
2023/08/07 12:11:06;;;;;;;4.72;2.40;;;17.70;99.90;;;;;;5037882;23;20224;-80
2023/08/07 12:13:37;;;;;;;4.18;2.08;;;17.40;15.30;;;;;;5008194;28;20188;-80
2023/08/07 12:16:06;;;;;;;6.75;2.80;;;17.20;99.90;;;;;;5002914;28;20199;-81
2023/08/07 12:18:35;;;;;;;3.85;1.95;;;17.30;99.90;;;;;;4999461;28;20195;-82
2023/08/07 12:21:04;;;;;;;5.93;2.70;;;17.30;1.00;;;;;;4999166;28;20208;-81
2023/08/07 12:23:39;;;;;;;8.32;2.33;;;17.20;99.90;;;;;;4997307;28;20851;-81
2023/08/07 12:26:07;;;;;;;5.88;2.30;;;17.10;1.00;;;;;;4988407;28;20211;-82
2023/08/07 12:28:40;;;;;;;7.07;2.80;;;17.10;48.70;;;;;;4974472;28;20204;-81
2023/08/07 12:31:11;;;;;;;5.93;2.40;;;17.10;99.90;;;;;;4985684;28;20220;-81
2023/08/07 12:33:39;;;;;;;6.78;2.60;;;17.20;3.50;;;;;;4993125;28;20200;-81
2023/08/07 12:36:08;;;;;;;6.00;2.72;;;17.40;1.00;;;;;;4980289;28;20201;-81
2023/08/07 12:38:35;;;;;;;5.80;2.50;;;17.40;99.90;;;;;;5000663;28;20200;-81
2023/08/07 12:41:03;;;;;;;5.47;2.47;;;17.50;99.90;;;;;;4981754;28;20220;-82
2023/08/07 12:43:30;;;;;;;5.40;2.50;;;17.80;31.30;;;;;;4990845;28;20201;-82
2023/08/07 12:45:58;;;;;;;5.85;2.53;;;17.90;99.90;;;;;;4995538;28;20220;-81
2023/08/07 12:48:28;;;;;;;5.25;2.30;;;17.70;1.00;;;;;;4997764;28;20200;-81
2023/08/07 12:50:55;;;;;;;5.60;2.15;;;17.60;99.90;;;;;;4999338;28;20212;-81
2023/08/07 12:53:23;;;;;;;6.57;2.35;;;17.50;99.90;;;;;;4989220;28;20207;-81
2023/08/07 12:55:50;;;;;;;6.47;2.10;;;17.50;99.90;;;;;;5012819;28;20192;-81
2023/08/07 12:58:18;;;;;;;4.10;2.20;;;17.70;1.00;;;;;;5016525;28;20199;-81